createdAt,value
2019-04-23T00:01:14.689Z,14.02
2019-04-23T00:03:35.642Z,14.01
2019-04-23T00:06:15.196Z,13.94
2019-04-23T00:09:05.431Z,13.92
2019-04-23T00:11:15.388Z,13.89
2019-04-23T00:13:49.858Z,13.86
2019-04-23T00:16:21.545Z,13.80
2019-04-23T00:19:00.702Z,13.77
2019-04-23T00:24:53.851Z,13.76
2019-04-23T00:27:06.585Z,13.76
2019-04-23T00:29:36.763Z,13.73
2019-04-23T00:32:10.467Z,13.74
2019-04-23T00:34:41.355Z,13.67
2019-04-23T00:37:18.640Z,13.65
2019-04-23T00:39:42.440Z,13.62
2019-04-23T00:42:15.204Z,13.57
2019-04-23T00:44:46.036Z,13.53
2019-04-23T00:47:23.638Z,13.50
2019-04-23T00:50:02.109Z,13.46
2019-04-23T00:52:27.327Z,13.39
2019-04-23T00:54:57.064Z,13.34
2019-04-23T00:57:34.047Z,13.33
2019-04-23T01:00:03.799Z,13.25
2019-04-23T01:02:33.536Z,13.27
2019-04-23T01:05:08.470Z,13.21
2019-04-23T01:07:33.493Z,13.23
2019-04-23T01:10:16.749Z,13.25
2019-04-23T01:12:46.707Z,13.23
2019-04-23T01:15:21.754Z,13.19
2019-04-23T01:17:57.761Z,13.15
2019-04-23T01:20:28.527Z,13.10
2019-04-23T01:22:40.098Z,13.04
2019-04-23T01:25:40.508Z,12.98
2019-04-23T01:28:26.632Z,12.97
2019-04-23T01:31:05.249Z,12.92
2019-04-23T01:33:37.947Z,12.97
2019-04-23T01:36:16.124Z,13.02
2019-04-23T01:38:40.534Z,13.02
2019-04-23T01:41:09.762Z,12.98
2019-04-23T01:43:44.356Z,13.01
2019-04-23T01:46:14.724Z,12.94
2019-04-23T01:48:47.085Z,12.94
2019-04-23T01:51:22.180Z,12.95
2019-04-23T01:58:53.589Z,12.88
2019-04-23T02:01:25.857Z,12.85
2019-04-23T02:08:58.809Z,12.75
2019-04-23T02:11:33.636Z,12.79
2019-04-23T02:14:08.264Z,12.85
2019-04-23T02:20:08.872Z,12.76
2019-04-23T02:23:04.683Z,12.72
2019-04-23T02:28:07.554Z,12.75
2019-04-23T02:35:55.638Z,12.73
2019-04-23T02:38:44.384Z,12.79
2019-04-23T02:41:03.666Z,12.76
2019-04-23T02:43:25.971Z,12.76
2019-04-23T02:46:01.560Z,12.74
2019-04-23T02:48:49.937Z,12.77
2019-04-23T02:51:03.919Z,12.81
2019-04-23T02:54:00.754Z,12.79
2019-04-23T02:56:14.632Z,12.73
2019-04-23T02:58:41.935Z,12.72
2019-04-23T03:01:21.757Z,12.70
2019-04-23T03:03:49.717Z,12.67
2019-04-23T03:08:49.285Z,12.52
2019-04-23T03:16:45.375Z,12.38
2019-04-23T03:19:23.661Z,12.36
2019-04-23T03:22:01.464Z,12.29
2019-04-23T03:25:05.249Z,12.19
2019-04-23T03:27:31.501Z,12.13
2019-04-23T03:37:33.645Z,11.84
2019-04-23T03:40:01.912Z,11.78
2019-04-23T03:42:47.561Z,11.73
2019-04-23T03:45:19.202Z,11.73
2019-04-23T03:52:41.549Z,11.81
2019-04-23T03:55:18.521Z,11.84
2019-04-23T03:58:05.038Z,11.89
2019-04-23T04:00:37.492Z,11.99
2019-04-23T04:03:03.768Z,12.07
2019-04-23T04:05:33.688Z,12.12
2019-04-23T04:08:12.088Z,12.19
2019-04-23T04:10:41.591Z,12.19
2019-04-23T04:13:22.820Z,12.16
2019-04-23T04:15:51.311Z,12.16
2019-04-23T04:18:25.890Z,12.08
2019-04-23T04:23:24.188Z,12.02
2019-04-23T04:25:49.988Z,12.06
2019-04-23T04:36:07.416Z,11.93
2019-04-23T04:43:45.607Z,12.10
2019-04-23T04:53:50.822Z,12.43
2019-04-23T04:56:25.272Z,12.46
2019-04-23T04:58:47.461Z,12.47
2019-04-23T05:01:12.155Z,12.48
2019-04-23T05:04:00.335Z,12.48
2019-04-23T05:08:54.357Z,12.59
2019-04-23T05:16:29.444Z,12.85
2019-04-23T05:19:15.585Z,12.84
2019-04-23T05:21:46.845Z,12.92
2019-04-23T05:24:14.862Z,12.97
2019-04-23T05:26:39.511Z,13.02
2019-04-23T05:31:40.395Z,13.17
2019-04-23T05:34:19.548Z,13.27
2019-04-23T05:41:57.183Z,13.53
2019-04-23T05:44:29.623Z,13.61
2019-04-23T05:47:01.266Z,13.66
2019-04-23T05:49:45.422Z,13.70
2019-04-23T05:52:04.463Z,13.76
2019-04-23T05:54:37.408Z,13.87
2019-04-23T05:57:02.873Z,13.99
2019-04-23T05:59:36.054Z,14.07
2019-04-23T06:02:07.589Z,14.11
2019-04-23T06:04:47.388Z,14.14
2019-04-23T06:07:22.136Z,14.22
2019-04-23T06:09:46.837Z,14.26
2019-04-23T06:12:13.594Z,14.32
2019-04-23T06:14:52.557Z,14.28
2019-04-23T06:17:21.588Z,14.34
2019-04-23T06:19:58.530Z,14.44
2019-04-23T06:22:35.199Z,14.51
2019-04-23T06:25:04.273Z,14.61
2019-04-23T06:27:32.328Z,14.67
2019-04-23T06:30:01.090Z,14.65
2019-04-23T06:32:41.395Z,14.72
2019-04-23T06:35:04.801Z,14.74
2019-04-23T06:38:04.716Z,14.69
2019-04-23T06:40:13.943Z,14.88
2019-04-23T06:43:05.314Z,14.96
2019-04-23T06:45:37.802Z,15.08
2019-04-23T06:48:16.621Z,15.11
2019-04-23T06:50:52.353Z,15.29
2019-04-23T06:53:12.225Z,15.41
2019-04-23T06:55:49.226Z,15.60
2019-04-23T06:58:30.749Z,15.60
2019-04-23T07:00:55.874Z,15.62
2019-04-23T07:03:30.111Z,15.65
2019-04-23T07:11:23.296Z,16.25
2019-04-23T07:13:54.149Z,16.31
2019-04-23T07:16:14.649Z,16.46
2019-04-23T07:18:47.024Z,16.67
2019-04-23T07:24:00.866Z,16.75
2019-04-23T07:26:33.321Z,16.92
2019-04-23T07:34:01.101Z,16.64
2019-04-23T07:44:51.960Z,16.80
2019-04-23T07:47:41.895Z,16.54
2019-04-23T07:50:11.341Z,16.42
2019-04-23T07:52:33.675Z,16.32
2019-04-23T07:58:04.118Z,16.54
2019-04-23T08:00:39.379Z,16.68
2019-04-23T08:03:08.553Z,16.79
2019-04-23T08:05:36.172Z,16.91
2019-04-23T08:08:01.736Z,16.93
2019-04-23T08:10:35.763Z,16.95
2019-04-23T08:15:42.581Z,16.48
2019-04-23T08:20:52.403Z,16.81
2019-04-23T08:23:47.204Z,16.82
2019-04-23T08:26:33.678Z,16.90
2019-04-23T08:29:05.790Z,16.90
2019-04-23T08:31:38.564Z,16.85
2019-04-23T08:34:16.980Z,16.67
2019-04-23T08:36:40.760Z,16.91
2019-04-23T08:39:10.322Z,17.18
2019-04-23T08:42:02.009Z,17.26
2019-04-23T08:44:36.926Z,17.74
2019-04-23T08:47:15.817Z,18.11
2019-04-23T08:49:43.629Z,18.38
2019-04-23T08:52:14.818Z,18.68
2019-04-23T08:57:18.340Z,19.14
2019-04-23T09:02:30.868Z,19.59
2019-04-23T09:04:53.877Z,19.70
2019-04-23T09:07:27.600Z,19.69
2019-04-23T09:10:02.474Z,19.79
2019-04-23T09:12:31.695Z,19.91
2019-04-23T09:15:03.903Z,20.27
2019-04-23T09:17:36.164Z,20.38
2019-04-23T09:25:14.686Z,21.91
2019-04-23T09:27:45.251Z,22.14
2019-04-23T09:30:14.740Z,22.18
2019-04-23T09:32:51.946Z,22.22
2019-04-23T09:35:30.772Z,22.61
2019-04-23T09:38:41.427Z,22.82
2019-04-23T09:41:31.306Z,23.38
2019-04-23T09:47:29.729Z,24.15
2019-04-23T09:50:01.238Z,24.17
2019-04-23T09:52:28.402Z,24.16
2019-04-23T09:55:04.695Z,23.85
2019-04-23T09:57:36.037Z,24.01
2019-04-23T10:00:15.504Z,25.04
2019-04-23T10:02:31.003Z,24.78
2019-04-23T10:04:56.763Z,24.59
2019-04-23T10:07:28.875Z,24.52
2019-04-23T10:09:49.704Z,24.39
2019-04-23T10:12:22.020Z,24.29
2019-04-23T10:15:05.437Z,24.26
2019-04-23T10:17:26.320Z,23.88
2019-04-23T10:19:58.298Z,23.80
2019-04-23T10:22:30.129Z,24.06
2019-04-23T10:25:01.306Z,24.32
2019-04-23T10:27:33.001Z,24.86
2019-04-23T10:30:03.977Z,25.09
2019-04-23T10:32:37.657Z,25.16
2019-04-23T10:35:20.957Z,25.46
2019-04-23T10:37:48.919Z,25.56
2019-04-23T10:40:22.945Z,25.84
2019-04-23T10:42:51.709Z,25.72
2019-04-23T10:45:48.447Z,25.50
2019-04-23T10:48:57.633Z,25.60
2019-04-23T10:51:28.629Z,25.64
2019-04-23T10:54:19.551Z,26.12
2019-04-23T10:56:45.072Z,26.41
2019-04-23T10:59:34.225Z,26.68
2019-04-23T11:02:24.064Z,27.20
2019-04-23T11:04:47.254Z,27.26
2019-04-23T11:07:20.812Z,26.93
2019-04-23T11:09:52.111Z,27.84
2019-04-23T11:12:37.197Z,28.41
2019-04-23T11:15:34.394Z,28.69
2019-04-23T11:17:50.178Z,29.18
2019-04-23T11:20:32.016Z,29.06
2019-04-23T11:22:48.290Z,29.11
2019-04-23T11:28:10.240Z,30.04
2019-04-23T11:30:36.130Z,28.57
2019-04-23T11:33:20.258Z,28.68
2019-04-23T11:35:47.676Z,28.76
2019-04-23T11:40:36.939Z,28.54
2019-04-23T11:43:22.783Z,28.61
2019-04-23T11:51:28.735Z,31.53
2019-04-23T11:53:35.989Z,32.93
2019-04-23T11:56:02.698Z,31.97
2019-04-23T12:07:17.580Z,32.97
2019-04-23T12:12:28.578Z,34.09
2019-04-23T12:15:07.391Z,32.63
2019-04-23T12:17:42.267Z,32.08
2019-04-23T12:20:02.891Z,32.65
2019-04-23T12:22:51.504Z,32.87
2019-04-23T12:27:38.665Z,34.89
2019-04-23T12:30:25.221Z,34.99
2019-04-23T12:35:22.412Z,32.88
2019-04-23T12:38:03.280Z,31.43
2019-04-23T12:43:12.432Z,33.78
2019-04-23T12:45:38.840Z,34.94
2019-04-23T12:53:25.804Z,34.04
2019-04-23T12:55:48.143Z,35.30
2019-04-23T12:58:24.780Z,33.81
2019-04-23T13:00:45.802Z,32.20
2019-04-23T13:05:51.252Z,30.96
2019-04-23T13:11:06.887Z,30.03
2019-04-23T13:13:37.490Z,30.45
2019-04-23T13:16:12.347Z,32.38
2019-04-23T13:18:38.116Z,32.86
2019-04-23T13:21:32.961Z,33.01
2019-04-23T13:23:41.132Z,31.86
2019-04-23T13:26:13.492Z,31.09
2019-04-23T13:28:52.541Z,31.72
2019-04-23T13:31:26.607Z,33.87
2019-04-23T13:33:52.491Z,35.65
2019-04-23T13:36:33.004Z,35.65
2019-04-23T13:38:57.119Z,34.93
2019-04-23T13:43:52.635Z,32.36
2019-04-23T13:46:45.539Z,32.13
2019-04-23T13:49:08.053Z,32.47
2019-04-23T13:51:40.014Z,33.61
2019-04-23T13:54:17.333Z,33.52
2019-04-23T13:57:12.836Z,34.63
2019-04-23T13:59:21.858Z,35.11
2019-04-23T14:01:46.923Z,35.75
2019-04-23T14:04:38.300Z,36.43
2019-04-23T14:07:07.502Z,35.41
2019-04-23T14:09:50.834Z,34.89
2019-04-23T14:12:17.622Z,35.33
2019-04-23T14:17:37.972Z,40.57
2019-04-23T14:19:53.451Z,38.99
2019-04-23T14:25:05.753Z,39.87
2019-04-23T14:32:40.065Z,40.09
2019-04-23T14:35:25.454Z,40.68
2019-04-23T14:37:53.130Z,38.09
2019-04-23T14:40:21.672Z,37.09
2019-04-23T14:42:56.030Z,37.85
2019-04-23T14:45:42.580Z,38.54
2019-04-23T14:48:03.892Z,38.13
2019-04-23T14:53:16.149Z,36.14
2019-04-23T14:55:49.372Z,36.68
2019-04-23T14:58:23.484Z,36.34
2019-04-23T15:01:05.182Z,34.81
2019-04-23T15:06:02.556Z,32.97
2019-04-23T15:08:28.575Z,32.89
2019-04-23T15:11:09.560Z,32.84
2019-04-23T15:16:03.070Z,32.64
2019-04-23T15:24:00.205Z,33.05
2019-04-23T15:28:37.308Z,33.08
2019-04-23T15:31:33.606Z,32.97
2019-04-23T15:34:07.604Z,33.28
2019-04-23T15:44:14.898Z,38.85
2019-04-23T15:49:22.998Z,36.43
2019-04-23T15:51:52.484Z,32.40
2019-04-23T15:54:25.009Z,29.92
2019-04-23T15:56:57.917Z,29.92
2019-04-23T15:59:34.963Z,32.07
2019-04-23T16:01:41.117Z,32.09
2019-04-23T16:04:01.438Z,31.18
2019-04-23T16:06:34.767Z,29.41
2019-04-23T16:09:21.066Z,29.58
2019-04-23T16:12:01.072Z,32.84
2019-04-23T16:14:52.968Z,32.24
2019-04-23T16:17:13.786Z,30.24
2019-04-23T16:25:09.859Z,27.39
2019-04-23T16:27:40.177Z,27.39
2019-04-23T16:35:46.207Z,28.94
2019-04-23T16:38:26.773Z,27.29
2019-04-23T16:40:50.536Z,26.60
2019-04-23T16:43:13.343Z,25.73
2019-04-23T16:48:36.675Z,25.10
2019-04-23T16:51:12.219Z,25.27
2019-04-23T16:53:27.537Z,25.47
2019-04-23T16:56:04.226Z,26.54
2019-04-23T17:01:03.385Z,28.21
2019-04-23T17:03:31.483Z,28.54
2019-04-23T17:06:15.871Z,27.22
2019-04-23T17:08:53.953Z,26.09
2019-04-23T17:11:15.262Z,25.21
2019-04-23T17:14:02.680Z,24.44
2019-04-23T17:16:16.759Z,23.99
2019-04-23T17:18:48.935Z,23.73
2019-04-23T17:21:16.912Z,23.46
2019-04-23T17:26:25.617Z,23.12
2019-04-23T17:29:03.983Z,22.95
2019-04-23T17:36:44.341Z,22.60
2019-04-23T17:39:18.079Z,22.59
2019-04-23T17:42:22.540Z,22.48
2019-04-23T17:45:02.503Z,22.42
2019-04-23T17:47:35.244Z,22.17
2019-04-23T17:52:41.990Z,21.93
2019-04-23T17:55:18.270Z,21.83
2019-04-23T17:57:43.713Z,21.87
2019-04-23T18:05:33.222Z,21.26
2019-04-23T18:08:06.708Z,21.03
2019-04-23T18:10:37.074Z,20.85
2019-04-23T18:15:17.666Z,20.47
2019-04-23T18:18:02.481Z,20.25
2019-04-23T18:20:58.064Z,20.09
2019-04-23T18:23:22.249Z,19.90
2019-04-23T18:26:04.095Z,19.70
2019-04-23T18:28:36.721Z,19.63
2019-04-23T18:31:13.030Z,19.56
2019-04-23T18:36:26.292Z,19.51
2019-04-23T18:41:41.637Z,19.41
2019-04-23T18:44:16.101Z,19.31
2019-04-23T18:46:43.795Z,19.05
2019-04-23T18:49:11.370Z,19.05
2019-04-23T18:51:55.063Z,18.90
2019-04-23T18:54:14.859Z,18.74
2019-04-23T18:57:02.042Z,18.61
2019-04-23T18:59:31.291Z,18.49
2019-04-23T19:05:15.351Z,18.18
2019-04-23T19:08:07.611Z,17.98
2019-04-23T19:11:05.409Z,17.74
2019-04-23T19:13:24.781Z,17.55
2019-04-23T19:15:45.837Z,17.36
2019-04-23T19:18:35.277Z,17.21
2019-04-23T19:21:09.218Z,17.10
2019-04-23T19:26:02.173Z,16.86
2019-04-23T19:31:27.574Z,16.66
2019-04-23T19:34:29.781Z,16.60
2019-04-23T19:36:59.218Z,16.69
2019-04-23T19:44:32.788Z,16.43
2019-04-23T19:47:17.070Z,16.35
2019-04-23T19:52:20.271Z,16.24
2019-04-23T19:57:17.840Z,16.06
2019-04-23T20:04:55.458Z,15.96
2019-04-23T20:12:38.743Z,15.75
2019-04-23T20:14:56.523Z,15.73
2019-04-23T20:20:06.206Z,15.59
2019-04-23T20:22:43.479Z,15.58
2019-04-23T20:28:05.732Z,15.43
2019-04-23T20:35:50.364Z,15.24
2019-04-23T20:40:53.906Z,15.11
2019-04-23T20:43:22.845Z,15.05
2019-04-23T20:45:58.831Z,14.99
2019-04-23T20:48:31.066Z,14.93
2019-04-23T20:51:01.402Z,14.84
2019-04-23T20:53:40.398Z,14.78
2019-04-23T20:56:07.380Z,14.65
2019-04-23T20:58:47.955Z,14.60
2019-04-23T21:03:56.794Z,14.57
2019-04-23T21:06:30.082Z,14.52
2019-04-23T21:11:40.419Z,14.34
2019-04-23T21:19:10.118Z,14.09
2019-04-23T21:22:06.030Z,14.02
2019-04-23T21:24:43.049Z,13.90
2019-04-23T21:27:21.745Z,13.84
2019-04-23T21:30:00.670Z,13.83
2019-04-23T21:32:35.539Z,13.84
2019-04-23T21:35:02.710Z,13.76
2019-04-23T21:38:48.427Z,13.69
2019-04-23T21:40:57.738Z,13.70
2019-04-23T21:43:16.456Z,13.66
2019-04-23T21:45:54.497Z,13.56
2019-04-23T21:48:15.657Z,13.53
2019-04-23T21:50:49.061Z,13.53
2019-04-23T21:53:18.755Z,13.45
2019-04-23T21:58:41.277Z,13.24
2019-04-23T22:01:06.030Z,13.19
2019-04-23T22:04:01.681Z,13.11
2019-04-23T22:06:17.598Z,13.03
2019-04-23T22:08:43.596Z,13.00
2019-04-23T22:11:36.267Z,12.93
2019-04-23T22:14:02.381Z,12.93
2019-04-23T22:19:04.272Z,12.80
2019-04-23T22:24:07.102Z,12.68
2019-04-23T22:26:28.420Z,12.63
2019-04-23T22:31:38.761Z,12.55
2019-04-23T22:34:08.962Z,12.56
2019-04-23T22:36:57.427Z,12.56
2019-04-23T22:41:46.216Z,12.38
2019-04-23T22:44:10.847Z,12.38
2019-04-23T22:46:52.443Z,12.32
2019-04-23T22:52:06.420Z,12.30
2019-04-23T22:54:23.345Z,12.24
2019-04-23T22:57:05.015Z,12.18
2019-04-23T22:59:48.894Z,12.12
2019-04-23T23:02:36.688Z,12.03
2019-04-23T23:05:09.980Z,11.98
2019-04-23T23:07:39.711Z,11.92
2019-04-23T23:10:06.879Z,11.85
2019-04-23T23:17:53.196Z,11.74
2019-04-23T23:20:20.861Z,11.78
2019-04-23T23:25:20.553Z,11.80
2019-04-23T23:30:19.726Z,11.68
2019-04-23T23:32:56.727Z,11.58
2019-04-23T23:35:31.232Z,11.51
2019-04-23T23:38:02.551Z,11.47
2019-04-23T23:40:25.495Z,11.43
2019-04-23T23:45:36.796Z,11.44
2019-04-23T23:48:08.963Z,11.39
2019-04-23T23:50:45.178Z,11.39
2019-04-23T23:53:15.596Z,11.42
2019-04-23T23:55:51.890Z,11.43
